CYED/YED METAR and TAF weather

Enter ICAO airport designator
Station Type Date Time Source
CYED METAR 2022/01/19 20:00 UTC NOAA

CYED 192000Z 17005KT 15SM FEW250 M18/M23 A3029 RMK CI1 DA-2110FT SLP326


Station Type Date Time Source
CYED Decoded METAR 2022/01/19 20:00 UTC NOAA

Edmonton Namao Alta., Canada (CYED) 53-40N 113-28W 688M
Jan 19, 2022 - 03:00 PM EST / 2022.01.19 2000 UTC
Wind: from the S (170 degrees) at 6 MPH (5 KT):0
Visibility: 15 mile(s):0
Sky conditions: mostly clear
Temperature: 0 F (-18 C)
Windchill: -11 F (-24 C):2
Dew Point: -9 F (-23 C)
Relative Humidity: 64%
Pressure (altimeter): 30.29 in. Hg (1025 hPa)
ob: CYED 192000Z 17005KT 15SM FEW250 M18/M23 A3029 RMK CI1 DA-2110FT SLP326
cycle: 20

Station Type Date Time Source
CYED TAF 2022/01/19 06:42 UTC NOAA

TAF CYED 190540Z 1906/1918 VRB03KT P6SM SKC
RMK NXT FCST BY 191200Z

Example: see airport list